Pasto, Pasto Antonio Narino Airport (SKPS)

NamePasto Antonio Narino Airport
CityPasto
CountryColombia
ICAOSKPS
IATAPSO
Altitude1814 m
CoordinatesGoogle Map
Live Air TrafficLiveATC.net
METARSKPS 221600Z 34004KT 9999 SCT023 21/16 A3020
2019-10-22 16:00:00 Wind: North-Northwest (340°) 2.06 m/s - Visibility: > 10000 m - Temperature: 21 °C - Dew point: 16 °C - Humidity: 73.2% - Pressure: 1022.69 hPa
Statistics

The table below shows the detailed information of all flights to/from Pasto, Pasto Antonio Narino Airport (SKPS).